createdAt,value
2022-08-22T00:00:13.952Z,91.50
2022-08-22T00:02:57.069Z,90.84
2022-08-22T00:02:59.131Z,91.80
2022-08-22T00:03:25.925Z,91.30
2022-08-22T00:06:50.136Z,91.07
2022-08-22T00:10:08.204Z,91.00
2022-08-22T00:13:18.155Z,90.68
2022-08-22T00:16:29.035Z,90.83
2022-08-22T00:19:44.143Z,90.57
2022-08-22T00:23:19.337Z,90.75
2022-08-22T00:26:34.539Z,90.09
2022-08-22T00:29:46.052Z,90.87
2022-08-22T00:32:54.394Z,90.31
2022-08-22T00:36:25.579Z,90.00
2022-08-22T00:39:34.988Z,90.51
2022-08-22T00:42:55.944Z,90.86
2022-08-22T00:46:42.588Z,90.48
2022-08-22T00:50:30.297Z,91.18
2022-08-22T00:53:41.852Z,90.55
2022-08-22T00:57:13.616Z,90.70
2022-08-22T01:00:28.797Z,90.41
2022-08-22T01:03:49.359Z,90.22
2022-08-22T01:07:04.006Z,90.35
2022-08-22T01:10:26.607Z,90.21
2022-08-22T01:13:41.155Z,90.81
2022-08-22T01:16:56.136Z,90.80
2022-08-22T01:20:10.696Z,90.73
2022-08-22T01:23:47.504Z,90.46
2022-08-22T01:27:31.320Z,90.20
2022-08-22T01:30:59.233Z,91.00
2022-08-22T01:34:23.286Z,90.81
2022-08-22T01:37:44.271Z,90.48
2022-08-22T01:41:13.104Z,90.85
2022-08-22T01:44:18.820Z,90.33
2022-08-22T01:47:37.371Z,90.38
2022-08-22T01:50:53.742Z,89.91
2022-08-22T01:54:00.517Z,90.66
2022-08-22T01:57:07.952Z,90.61
2022-08-22T02:00:18.453Z,90.37
2022-08-22T02:03:37.301Z,90.24
2022-08-22T02:06:58.386Z,90.35
2022-08-22T02:11:06.100Z,90.54
2022-08-22T02:14:33.474Z,90.63
2022-08-22T02:18:01.310Z,90.73
2022-08-22T02:21:15.724Z,91.35
2022-08-22T02:24:36.965Z,90.46
2022-08-22T02:28:12.772Z,90.13
2022-08-22T02:31:27.290Z,90.94
2022-08-22T02:35:01.662Z,91.15
2022-08-22T02:38:35.353Z,90.97
2022-08-22T02:41:50.199Z,91.11
2022-08-22T02:44:53.107Z,91.03
2022-08-22T02:48:17.244Z,90.62
2022-08-22T02:51:20.097Z,90.90
2022-08-22T02:54:32.103Z,90.74
2022-08-22T02:58:21.091Z,91.06
2022-08-22T03:01:32.344Z,91.02
2022-08-22T03:04:40.961Z,91.18
2022-08-22T03:08:04.967Z,90.85
2022-08-22T03:11:24.160Z,90.63
2022-08-22T03:14:38.923Z,90.81
2022-08-22T03:17:55.256Z,90.96
2022-08-22T03:21:11.134Z,91.14
2022-08-22T03:24:41.363Z,91.20
2022-08-22T03:27:51.975Z,90.75
2022-08-22T03:31:17.413Z,91.31
2022-08-22T03:34:23.961Z,91.83
2022-08-22T03:37:42.310Z,91.71
2022-08-22T03:41:26.140Z,91.28
2022-08-22T03:44:47.056Z,90.88
2022-08-22T03:48:17.303Z,91.08
2022-08-22T03:51:41.973Z,91.17
2022-08-22T03:54:53.961Z,91.34
2022-08-22T03:58:05.724Z,91.51
2022-08-22T04:01:46.222Z,90.98
2022-08-22T04:05:23.803Z,91.08
2022-08-22T04:08:45.234Z,91.38
2022-08-22T04:12:11.295Z,91.22
2022-08-22T04:15:33.639Z,91.24
2022-08-22T04:19:10.648Z,91.27
2022-08-22T04:23:04.180Z,91.34
2022-08-22T04:26:27.695Z,91.87
2022-08-22T04:30:05.919Z,91.07
2022-08-22T04:33:26.082Z,90.97
2022-08-22T04:36:38.034Z,91.02
2022-08-22T04:39:49.632Z,91.50
2022-08-22T04:43:06.594Z,91.14
2022-08-22T04:46:14.541Z,91.34
2022-08-22T04:49:28.389Z,91.43
2022-08-22T04:52:52.474Z,91.55
2022-08-22T04:56:04.117Z,91.63
2022-08-22T04:59:17.482Z,91.13
2022-08-22T05:02:23.631Z,91.52
2022-08-22T05:05:42.682Z,90.85
2022-08-22T05:08:48.404Z,90.60
2022-08-22T05:12:03.802Z,89.78
2022-08-22T05:15:19.011Z,90.44
2022-08-22T05:18:34.755Z,90.72
2022-08-22T05:21:40.876Z,90.64
2022-08-22T05:24:48.912Z,90.60
2022-08-22T05:28:02.129Z,90.29
2022-08-22T05:31:12.411Z,90.95
2022-08-22T05:34:20.330Z,90.52
2022-08-22T05:37:37.506Z,90.23
2022-08-22T05:40:41.276Z,90.22
2022-08-22T05:43:45.368Z,90.00
2022-08-22T05:47:12.610Z,90.16
2022-08-22T05:50:18.425Z,90.37
2022-08-22T05:53:21.075Z,89.80
2022-08-22T05:56:47.528Z,89.48
2022-08-22T05:59:56.936Z,88.77
2022-08-22T06:03:13.421Z,88.54
2022-08-22T06:06:19.486Z,88.72
2022-08-22T06:09:46.399Z,89.44
2022-08-22T06:13:41.549Z,88.89
2022-08-22T06:17:03.786Z,88.06
2022-08-22T06:20:09.506Z,88.08
2022-08-22T06:23:21.403Z,88.16
2022-08-22T06:26:31.688Z,88.26
2022-08-22T06:29:39.645Z,88.21
2022-08-22T06:32:59.761Z,87.93
2022-08-22T06:36:31.976Z,87.92
2022-08-22T06:39:38.303Z,87.54
2022-08-22T06:42:45.708Z,87.55
2022-08-22T06:45:50.369Z,87.05
2022-08-22T06:48:55.698Z,87.34
2022-08-22T06:52:02.104Z,86.70
2022-08-22T06:55:10.114Z,86.71
2022-08-22T06:58:17.463Z,87.29
2022-08-22T07:01:30.697Z,86.63
2022-08-22T07:04:33.801Z,86.80
2022-08-22T07:07:37.764Z,86.36
2022-08-22T07:10:43.629Z,86.54
2022-08-22T07:13:53.788Z,87.17
2022-08-22T07:16:58.627Z,86.44
2022-08-22T07:20:25.485Z,86.54
2022-08-22T07:23:46.010Z,86.37
2022-08-22T07:27:02.776Z,86.09
2022-08-22T07:30:15.229Z,85.46
2022-08-22T07:33:45.350Z,84.55
2022-08-22T07:37:01.683Z,84.41
2022-08-22T07:40:34.614Z,84.25
2022-08-22T07:43:46.489Z,84.04
2022-08-22T07:47:03.192Z,83.28
2022-08-22T07:50:09.623Z,82.77
2022-08-22T07:53:27.054Z,82.45
2022-08-22T07:56:36.004Z,82.56
2022-08-22T07:59:45.303Z,83.25
2022-08-22T08:02:53.076Z,82.42
2022-08-22T08:05:56.495Z,82.21
2022-08-22T08:08:59.328Z,83.03
2022-08-22T08:12:05.877Z,83.31
2022-08-22T08:15:15.130Z,81.94
2022-08-22T08:18:25.135Z,81.84
2022-08-22T08:21:27.759Z,81.30
2022-08-22T08:24:39.554Z,81.09
2022-08-22T08:28:04.941Z,80.40
2022-08-22T08:31:28.020Z,80.07
2022-08-22T08:34:34.744Z,80.52
2022-08-22T08:37:49.248Z,79.25
2022-08-22T08:41:00.631Z,78.59
2022-08-22T08:44:26.784Z,80.53
2022-08-22T08:47:46.110Z,80.17
2022-08-22T08:51:11.088Z,81.74
2022-08-22T08:54:35.948Z,82.21
2022-08-22T08:57:54.893Z,82.45
2022-08-22T09:01:19.429Z,83.15
2022-08-22T09:04:46.407Z,83.46
2022-08-22T09:08:00.817Z,83.77
2022-08-22T09:11:10.181Z,83.38
2022-08-22T09:14:41.766Z,84.20
2022-08-22T09:18:00.152Z,83.56
2022-08-22T09:21:42.033Z,83.22
2022-08-22T09:25:14.941Z,83.68
2022-08-22T09:28:32.362Z,84.11
2022-08-22T09:32:00.332Z,84.00
2022-08-22T09:35:17.095Z,83.69
2022-08-22T09:38:34.752Z,83.79
2022-08-22T09:42:02.778Z,83.47
2022-08-22T09:45:11.855Z,83.36
2022-08-22T09:48:37.380Z,83.43
2022-08-22T09:51:40.487Z,82.64
2022-08-22T09:55:03.302Z,81.81
2022-08-22T09:58:38.841Z,82.22
2022-08-22T10:01:56.383Z,82.46
2022-08-22T10:05:40.353Z,82.28
2022-08-22T10:08:57.738Z,81.84
2022-08-22T10:12:12.500Z,80.81
2022-08-22T10:15:49.619Z,79.94
2022-08-22T10:19:16.779Z,79.92
2022-08-22T10:22:30.033Z,79.91
2022-08-22T10:25:42.450Z,79.31
2022-08-22T10:28:54.318Z,78.85
2022-08-22T10:32:10.750Z,78.44
2022-08-22T10:35:25.583Z,77.82
2022-08-22T10:38:36.032Z,78.05
2022-08-22T10:42:05.870Z,77.86
2022-08-22T10:45:36.540Z,77.28
2022-08-22T10:48:47.846Z,76.66
2022-08-22T10:52:14.736Z,76.95
2022-08-22T10:55:25.595Z,76.55
2022-08-22T10:58:36.940Z,76.50
2022-08-22T11:02:02.296Z,76.25
2022-08-22T11:05:13.480Z,75.38
2022-08-22T11:08:48.168Z,76.83
2022-08-22T11:12:19.365Z,74.73
2022-08-22T11:16:04.956Z,74.13
2022-08-22T11:19:23.218Z,72.81
2022-08-22T11:22:36.586Z,72.96
2022-08-22T11:25:58.059Z,72.87
2022-08-22T11:29:26.362Z,72.69
2022-08-22T11:32:34.927Z,72.51
2022-08-22T11:35:47.975Z,72.86
2022-08-22T11:39:01.184Z,72.96
2022-08-22T11:42:12.389Z,73.13
2022-08-22T11:45:21.833Z,73.21
2022-08-22T11:48:47.821Z,72.56
2022-08-22T11:52:13.636Z,72.89
2022-08-22T11:55:33.166Z,72.01
2022-08-22T11:58:43.722Z,70.87
2022-08-22T12:02:00.184Z,71.10
2022-08-22T12:05:38.037Z,69.55
2022-08-22T12:08:58.624Z,67.26
2022-08-22T12:13:01.940Z,66.24
2022-08-22T12:16:26.689Z,65.26
2022-08-22T12:20:17.442Z,65.88
2022-08-22T12:23:38.033Z,64.51
2022-08-22T12:27:07.797Z,65.63
2022-08-22T12:30:12.853Z,66.09
2022-08-22T12:33:42.522Z,65.40
2022-08-22T12:37:06.686Z,66.44
2022-08-22T12:40:59.021Z,67.36
2022-08-22T12:44:47.084Z,67.77
2022-08-22T12:47:50.757Z,67.51
2022-08-22T12:54:42.383Z,68.32
2022-08-22T13:02:13.880Z,69.21
2022-08-22T13:05:24.992Z,68.44
2022-08-22T13:08:33.492Z,69.13
2022-08-22T13:11:41.210Z,68.73
2022-08-22T13:14:46.117Z,69.82
2022-08-22T13:17:53.440Z,69.47
2022-08-22T13:20:58.255Z,68.38
2022-08-22T13:24:38.538Z,68.44
2022-08-22T13:27:50.761Z,68.88
2022-08-22T13:30:56.395Z,69.73
2022-08-22T13:34:06.975Z,69.01
2022-08-22T13:37:18.079Z,69.67
2022-08-22T13:40:32.645Z,70.08
2022-08-22T13:44:22.482Z,70.13
2022-08-22T13:47:31.675Z,70.58
2022-08-22T13:50:54.085Z,70.54
2022-08-22T13:54:12.165Z,70.78
2022-08-22T13:57:23.839Z,71.53
2022-08-22T14:00:56.500Z,71.52
2022-08-22T14:04:05.602Z,70.74
2022-08-22T14:07:58.312Z,70.37
2022-08-22T14:11:24.273Z,69.68
2022-08-22T14:14:32.644Z,69.60
2022-08-22T14:17:43.107Z,69.03
2022-08-22T14:20:47.625Z,70.19
2022-08-22T14:23:52.951Z,70.60
2022-08-22T14:27:15.903Z,69.99
2022-08-22T14:30:24.544Z,70.17
2022-08-22T14:33:35.111Z,70.03
2022-08-22T14:37:05.964Z,69.99
2022-08-22T14:40:17.922Z,69.85
2022-08-22T14:43:40.348Z,70.13
2022-08-22T14:46:58.094Z,69.52
2022-08-22T14:50:11.166Z,69.94
2022-08-22T14:53:20.177Z,70.22
2022-08-22T14:56:30.585Z,69.98
2022-08-22T14:59:50.019Z,70.14
2022-08-22T15:02:55.328Z,70.08
2022-08-22T15:06:10.897Z,69.48
2022-08-22T15:09:40.500Z,68.79
2022-08-22T15:12:51.483Z,68.47
2022-08-22T15:15:58.832Z,68.30
2022-08-22T15:19:25.259Z,68.45
2022-08-22T15:22:30.551Z,68.44
2022-08-22T15:25:35.099Z,69.16
2022-08-22T15:28:53.199Z,68.56
2022-08-22T15:32:02.422Z,69.01
2022-08-22T15:35:07.776Z,69.50
2022-08-22T15:38:31.252Z,68.15
2022-08-22T15:41:36.415Z,68.46
2022-08-22T15:44:44.217Z,69.30
2022-08-22T15:47:52.330Z,68.87
2022-08-22T15:51:01.298Z,69.36
2022-08-22T15:54:24.993Z,69.44
2022-08-22T15:57:40.531Z,69.46
2022-08-22T16:01:19.107Z,70.60
2022-08-22T16:05:11.373Z,70.67
2022-08-22T16:08:21.592Z,71.84
2022-08-22T16:11:33.473Z,71.69
2022-08-22T16:14:36.360Z,71.37
2022-08-22T16:17:45.904Z,71.95
2022-08-22T16:20:56.321Z,72.20
2022-08-22T16:23:59.393Z,72.39
2022-08-22T16:27:19.208Z,72.58
2022-08-22T16:30:33.639Z,72.74
2022-08-22T16:33:40.860Z,73.12
2022-08-22T16:36:47.256Z,73.70
2022-08-22T16:39:58.515Z,74.45
2022-08-22T16:43:18.607Z,75.21
2022-08-22T16:46:33.264Z,75.50
2022-08-22T16:50:23.013Z,76.33
2022-08-22T16:53:28.661Z,77.17
2022-08-22T16:57:10.077Z,77.59
2022-08-22T17:00:36.121Z,78.48
2022-08-22T17:04:00.576Z,78.99
2022-08-22T17:07:21.721Z,80.03
2022-08-22T17:10:49.930Z,80.65
2022-08-22T17:14:23.677Z,80.93
2022-08-22T17:17:59.809Z,81.13
2022-08-22T17:21:25.998Z,81.84
2022-08-22T17:24:40.533Z,81.71
2022-08-22T17:27:47.009Z,82.01
2022-08-22T17:31:04.724Z,81.83
2022-08-22T17:34:17.154Z,82.66
2022-08-22T17:37:30.657Z,82.17
2022-08-22T17:41:03.963Z,82.71
2022-08-22T17:44:27.334Z,82.91
2022-08-22T17:48:15.143Z,82.81
2022-08-22T17:51:30.730Z,82.69
2022-08-22T17:54:37.475Z,83.49
2022-08-22T17:57:49.681Z,83.75
2022-08-22T18:01:04.847Z,84.15
2022-08-22T18:04:17.633Z,84.37
2022-08-22T18:07:44.465Z,84.68
2022-08-22T18:11:01.433Z,83.99
2022-08-22T18:14:07.507Z,84.43
2022-08-22T18:17:21.864Z,84.60
2022-08-22T18:20:31.871Z,84.75
2022-08-22T18:23:40.507Z,84.64
2022-08-22T18:27:10.588Z,84.99
2022-08-22T18:30:38.906Z,84.94
2022-08-22T18:33:55.542Z,85.13
2022-08-22T18:37:23.291Z,85.39
2022-08-22T18:40:46.902Z,85.47
2022-08-22T18:43:54.241Z,85.23
2022-08-22T18:47:00.700Z,85.15
2022-08-22T18:50:31.282Z,85.03
2022-08-22T18:53:39.317Z,85.26
2022-08-22T18:56:58.273Z,85.34
2022-08-22T19:00:16.760Z,85.63
2022-08-22T19:03:38.500Z,86.02
2022-08-22T19:07:18.389Z,86.14
2022-08-22T19:10:36.793Z,85.74
2022-08-22T19:14:03.120Z,85.66
2022-08-22T19:17:40.310Z,85.81
2022-08-22T19:21:01.529Z,85.75
2022-08-22T19:24:07.945Z,86.30
2022-08-22T19:27:10.524Z,86.15
2022-08-22T19:30:41.591Z,86.78
2022-08-22T19:33:49.567Z,86.24
2022-08-22T19:37:11.721Z,86.74
2022-08-22T19:40:46.131Z,86.75
2022-08-22T19:43:49.219Z,86.87
2022-08-22T19:47:18.112Z,86.72
2022-08-22T19:50:21.378Z,86.48
2022-08-22T19:53:38.864Z,86.56
2022-08-22T19:56:59.703Z,86.49
2022-08-22T20:00:14.106Z,86.42
2022-08-22T20:03:41.794Z,86.08
2022-08-22T20:07:15.059Z,85.89
2022-08-22T20:10:33.907Z,85.98
2022-08-22T20:13:37.899Z,86.36
2022-08-22T20:17:09.307Z,86.81
2022-08-22T20:20:31.603Z,86.54
2022-08-22T20:23:39.248Z,86.67
2022-08-22T20:27:09.921Z,86.77
2022-08-22T20:30:27.503Z,86.79
2022-08-22T20:33:46.586Z,86.59
2022-08-22T20:37:09.558Z,86.27
2022-08-22T20:40:54.827Z,86.33
2022-08-22T20:44:01.740Z,86.40
2022-08-22T20:47:13.365Z,86.42
2022-08-22T20:50:27.784Z,86.61
2022-08-22T20:53:31.537Z,86.72
2022-08-22T20:56:48.715Z,86.46
2022-08-22T20:59:57.893Z,86.74
2022-08-22T21:03:07.969Z,86.78
2022-08-22T21:06:17.229Z,86.98
2022-08-22T21:09:40.032Z,87.17
2022-08-22T21:12:42.692Z,86.65
2022-08-22T21:15:52.605Z,86.80
2022-08-22T21:18:56.442Z,86.56
2022-08-22T21:22:17.833Z,86.12
2022-08-22T21:25:20.630Z,85.95
2022-08-22T21:28:31.820Z,86.23
2022-08-22T21:31:48.863Z,86.01
2022-08-22T21:34:52.271Z,85.92
2022-08-22T21:37:56.504Z,85.80
2022-08-22T21:41:02.356Z,85.68
2022-08-22T21:44:28.850Z,85.82
2022-08-22T21:47:37.474Z,85.85
2022-08-22T21:50:41.427Z,85.83
2022-08-22T21:53:44.529Z,86.25
2022-08-22T21:56:49.798Z,86.47
2022-08-22T21:59:59.374Z,86.66
2022-08-22T22:03:02.942Z,86.60
2022-08-22T22:06:06.772Z,86.09
2022-08-22T22:09:14.577Z,85.96
2022-08-22T22:12:18.934Z,85.90
2022-08-22T22:15:25.205Z,86.27
2022-08-22T22:18:32.750Z,86.47
2022-08-22T22:21:35.575Z,86.30
2022-08-22T22:24:38.742Z,86.36
2022-08-22T22:27:41.479Z,86.63
2022-08-22T22:30:46.327Z,86.75
2022-08-22T22:33:49.033Z,86.45
2022-08-22T22:36:53.682Z,86.17
2022-08-22T22:39:56.566Z,86.37
2022-08-22T22:42:59.669Z,86.53
2022-08-22T22:46:02.325Z,85.93
2022-08-22T22:49:05.947Z,85.83
2022-08-22T22:52:08.620Z,85.85
2022-08-22T22:55:24.412Z,85.85
2022-08-22T22:58:29.222Z,85.63
2022-08-22T23:01:33.401Z,85.73
2022-08-22T23:04:39.333Z,86.17
2022-08-22T23:07:42.411Z,86.58
2022-08-22T23:10:45.083Z,86.68
2022-08-22T23:13:48.559Z,86.31
2022-08-22T23:16:51.283Z,86.27
2022-08-22T23:19:54.407Z,86.03
2022-08-22T23:22:57.098Z,85.90
2022-08-22T23:26:00.115Z,86.25
2022-08-22T23:29:03.031Z,86.26
2022-08-22T23:32:07.098Z,86.44
2022-08-22T23:35:10.149Z,86.67
2022-08-22T23:38:13.376Z,86.64
2022-08-22T23:41:18.432Z,86.72
2022-08-22T23:44:24.398Z,86.60
2022-08-22T23:47:27.093Z,86.60
2022-08-22T23:50:30.102Z,86.65
2022-08-22T23:53:33.979Z,86.45
2022-08-22T23:56:42.385Z,86.39
2022-08-22T23:59:48.050Z,86.65
